Welkom op de website van Weerstation Hoek van Holland.

Onweer radar Meer informatie blitzortung!


Regen radar Meer informatie rain snow radar



METAR rapporten vliegvelden

   
EHRD - Rotterdam International Airport, NL
Afstand tot: Oost 31 km
Gewijzigd: 17-10-2019 07:25
Gedeeltelijk bewolkt  
Gedeeltelijk bewolkt  
   Wind: ZZW 7.4 km/h
Wind: ZZW 7.4 km/h
Temperatuur: 12°C
Dauwpunt: 11°C
Vochtigheid: 94%
Barometer: 1007 hPa
Bewolking: Partly Cloudy
Zicht: meer dan 10 km
Bewolking: Gedeeltelijk bewolkt ft
EHRD 170525Z AUTO 21004KT 120V240 9999 NSC 12/11 Q1007 NOSIG
EHAM - Amsterdam Schiphol, NL
Afstand tot: Noord 17 km
Gewijzigd: 17-10-2019 07:55
Helder  
Helder  
   Wind: Zuiden 7.4 km/h
Wind: Zuiden 7.4 km/h
Temperatuur: 12°C
Dauwpunt: 11°C
Vochtigheid: 94%
Barometer: 1007 hPa
Zicht: meer dan 10 km
Bewolking: Helder ft
EHAM 170555Z 18004KT CAVOK 12/11 Q1007 NOSIG
EBAW - Antwerpen/Deurne, B
Afstand tot: Zuid 138 km
Gewijzigd: 17-10-2019 07:50
Grotendeels bewolkt  
Grotendeels bewolkt  
   Wind: ZW 13 km/h
Wind: ZW 13 km/h
Temperatuur: 12°C
Dauwpunt: 11°C
Vochtigheid: 94%
Barometer: 1009 hPa
Bewolking: Mostly Cloudy
Zicht: 8 km
Bewolking: Licht bewolkt 700 ft,
Gedeeltelijk bewolkt 900 ft,
Grotendeels bewolkt 4000 ft
EBAW 170550Z 23007KT 8000 FEW007 SCT009 BKN040 12/11 Q1009 TEMPO BKN008
EHEH - Eindhoven, NL
Afstand tot: OZO 140 km
Gewijzigd: 17-10-2019 07:55
Grotendeels bewolkt  
Grotendeels bewolkt  
   Wind: Westen 11.1 km/h
Wind: Westen 11.1 km/h
Temperatuur: 13°C
Dauwpunt: 13°C
Vochtigheid: 100%
Barometer: 1008 hPa
Bewolking: Mostly Cloudy
Zicht: meer dan 10 km
Bewolking: Gedeeltelijk bewolkt 300 ft,
Grotendeels bewolkt 400 ft,
Grotendeels bewolkt 700 ft
EHEH 170555Z AUTO 27006KT 250V310 9999 SCT003 BKN004 BKN007 13/13 Q1008 YLO 27006KT 6000 -DZRA BR SCT005 BKN008 OVC010 TEMPO 3000 DZRA SCT003 BKN005 OVC007
  

Script ontwikkeld door  Saratoga-weather.org Aangepast voor de template door  Weerstation Leuven

Apparatuur in gebruik:

Weerstation
Davis VP2

Weerprogramma
Meteobridge

Weercomputer
meteobridge met meteostick

Webleverancier
Strato

Davis VP2

Meteobridge

meteobridge met meteostick

Strato